Time,TemperatureF,DewpointF,PressureIn,WindDirection,WindDirectionDegrees,WindSpeedMPH,WindSpeedGustMPH,Humidity,HourlyPrecipIn,Conditions,Clouds,dailyrainin,SoftwareType,DateUTC
2013-05-10 00:04:00,45.8,39.2,30.07,NNE,17,14.9,22.2,77,0.00,,,0.00,CWS Microserver 1.4,2013-05-10 05:04:00,
2013-05-10 00:09:00,45.6,39.3,30.08,NNE,19,16.1,22.4,78,0.00,,,0.00,CWS Microserver 1.4,2013-05-10 05:09:00,
2013-05-10 00:14:00,45.6,38.7,30.08,NNE,28,18.4,22.4,76,0.00,,,0.00,CWS Microserver 1.4,2013-05-10 05:14:00,
2013-05-10 00:19:00,45.5,37.8,30.08,NE,43,14.1,22.1,74,0.00,,,0.00,CWS Microserver 1.4,2013-05-10 05:19:00,
2013-05-10 00:24:00,45.3,38.2,30.08,NNE,33,14.9,22.1,76,0.00,,,0.00,CWS Microserver 1.4,2013-05-10 05:24:00,
2013-05-10 00:34:00,45.3,39.1,30.08,NE,34,12.2,18.2,78,0.00,,,0.00,CWS Microserver 1.4,2013-05-10 05:34:00,
2013-05-10 00:39:00,45.1,37.5,30.08,NNE,20,12.4,24.0,74,0.00,,,0.00,CWS Microserver 1.4,2013-05-10 05:39:00,
2013-05-10 00:44:00,44.9,35.6,30.08,NNE,25,17.8,24.0,69,0.00,,,0.00,CWS Microserver 1.4,2013-05-10 05:44:00,
2013-05-10 00:49:00,44.6,35.8,30.09,NNE,31,15.9,23.6,71,0.00,,,0.00,CWS Microserver 1.4,2013-05-10 05:49:00,
2013-05-10 00:54:00,44.4,36.7,30.09,NNE,16,14.6,23.6,74,0.00,,,0.00,CWS Microserver 1.4,2013-05-10 05:54:00,
2013-05-10 00:59:00,44.4,36.4,30.09,NE,34,9.7,20.7,73,0.00,,,0.00,CWS Microserver 1.4,2013-05-10 05:59:00,
2013-05-10 01:04:00,44.2,36.8,30.09,NNE,21,14.5,20.7,75,0.00,,,0.00,CWS Microserver 1.4,2013-05-10 06:04:00,
2013-05-10 01:09:00,44.0,35.0,30.09,NNE,29,15.1,23.6,70,0.00,,,0.00,CWS Microserver 1.4,2013-05-10 06:09:00,
2013-05-10 01:14:00,44.0,35.5,30.09,NNE,26,11.5,23.6,72,0.00,,,0.00,CWS Microserver 1.4,2013-05-10 06:14:00,
2013-05-10 01:19:00,43.7,35.5,30.09,North,11,17.8,19.3,72,0.00,,,0.00,CWS Microserver 1.4,2013-05-10 06:19:00,
2013-05-10 01:24:00,43.7,36.2,30.09,NNE,26,7.4,17.8,74,0.00,,,0.00,CWS Microserver 1.4,2013-05-10 06:24:00,
2013-05-10 01:29:00,43.7,35.7,30.09,NNE,14,14.1,17.8,73,0.00,,,0.00,CWS Microserver 1.4,2013-05-10 06:29:00,
2013-05-10 01:34:00,43.5,35.6,30.09,NNE,19,12.4,17.7,73,0.00,,,0.00,CWS Microserver 1.4,2013-05-10 06:34:00,
2013-05-10 01:39:00,43.5,34.6,30.09,NNE,21,15.0,19.4,70,0.00,,,0.00,CWS Microserver 1.4,2013-05-10 06:39:00,
2013-05-10 01:44:00,43.3,33.3,30.09,NNE,24,17.1,19.4,67,0.00,,,0.00,CWS Microserver 1.4,2013-05-10 06:44:00,
2013-05-10 01:49:00,43.1,33.7,30.09,NE,36,13.8,18.9,69,0.00,,,0.00,CWS Microserver 1.4,2013-05-10 06:49:00,
2013-05-10 01:54:00,42.9,32.6,30.08,NNE,30,12.7,20.7,66,0.00,,,0.00,CWS Microserver 1.4,2013-05-10 06:54:00,
2013-05-10 01:59:00,42.6,32.8,30.08,NNE,27,12.1,20.7,68,0.00,,,0.00,CWS Microserver 1.4,2013-05-10 06:59:00,
2013-05-10 02:04:00,42.6,32.7,30.08,NNE,22,11.4,18.9,67,0.00,,,0.00,CWS Microserver 1.4,2013-05-10 07:04:00,
2013-05-10 02:09:00,42.6,32.6,30.08,North,9,14.5,16.9,67,0.00,,,0.00,CWS Microserver 1.4,2013-05-10 07:09:00,
2013-05-10 02:14:00,42.8,32.7,30.08,North,10,13.2,18.8,67,0.00,,,0.00,CWS Microserver 1.4,2013-05-10 07:14:00,
2013-05-10 02:19:00,42.8,32.7,30.08,NNE,15,8.4,18.8,67,0.00,,,0.00,CWS Microserver 1.4,2013-05-10 07:19:00,
2013-05-10 02:24:00,42.8,33.0,30.08,North,9,11.5,18.0,68,0.00,,,0.00,CWS Microserver 1.4,2013-05-10 07:24:00,
2013-05-10 02:29:00,42.6,33.0,30.08,North,9,10.4,18.0,68,0.00,,,0.00,CWS Microserver 1.4,2013-05-10 07:29:00,
2013-05-10 02:34:00,42.8,32.4,30.08,NNE,12,13.7,17.4,66,0.00,,,0.00,CWS Microserver 1.4,2013-05-10 07:34:00,
2013-05-10 02:39:00,42.6,32.5,30.08,NNE,13,12.7,17.4,67,0.00,,,0.00,CWS Microserver 1.4,2013-05-10 07:39:00,
2013-05-10 02:44:00,42.2,32.1,30.07,NNE,17,15.3,17.0,67,0.00,,,0.00,CWS Microserver 1.4,2013-05-10 07:44:00,
2013-05-10 02:49:00,41.7,32.3,30.08,NNE,14,11.9,16.5,69,0.00,,,0.00,CWS Microserver 1.4,2013-05-10 07:49:00,
2013-05-10 02:54:00,41.7,31.8,30.08,NNE,16,12.1,17.0,67,0.00,,,0.00,CWS Microserver 1.4,2013-05-10 07:54:00,
2013-05-10 02:59:00,41.3,31.6,30.08,NNE,24,13.1,17.0,68,0.00,,,0.00,CWS Microserver 1.4,2013-05-10 07:59:00,
2013-05-10 03:04:00,41.0,32.1,30.08,NNE,13,9.4,16.6,70,0.00,,,0.00,CWS Microserver 1.4,2013-05-10 08:04:00,
2013-05-10 03:09:00,41.1,31.7,30.08,North,349,7.1,15.9,69,0.00,,,0.00,CWS Microserver 1.4,2013-05-10 08:09:00,
2013-05-10 03:14:00,41.0,31.6,30.08,NNE,19,7.7,15.9,69,0.00,,,0.00,CWS Microserver 1.4,2013-05-10 08:14:00,
2013-05-10 03:19:00,40.8,31.8,30.08,NNE,17,15.2,15.6,70,0.00,,,0.00,CWS Microserver 1.4,2013-05-10 08:19:00,
2013-05-10 03:24:00,40.8,32.2,30.08,NNE,12,9.4,15.8,71,0.00,,,0.00,CWS Microserver 1.4,2013-05-10 08:24:00,
2013-05-10 03:29:00,40.8,32.4,30.08,North,11,11.7,15.8,71,0.00,,,0.00,CWS Microserver 1.4,2013-05-10 08:29:00,
2013-05-10 03:34:00,40.6,32.2,30.08,NNE,15,12.1,15.7,71,0.00,,,0.00,CWS Microserver 1.4,2013-05-10 08:34:00,
2013-05-10 03:39:00,40.8,32.2,30.08,NNE,13,10.5,16.9,71,0.00,,,0.00,CWS Microserver 1.4,2013-05-10 08:39:00,
2013-05-10 03:44:00,40.6,32.5,30.08,North,11,11.9,16.9,72,0.00,,,0.00,CWS Microserver 1.4,2013-05-10 08:44:00,
2013-05-10 03:49:00,40.2,32.9,30.08,NNE,12,11.8,15.9,74,0.00,,,0.00,CWS Microserver 1.4,2013-05-10 08:49:00,
2013-05-10 03:54:00,40.1,32.9,30.08,NNE,20,14.0,15.9,75,0.00,,,0.00,CWS Microserver 1.4,2013-05-10 08:54:00,
2013-05-10 03:59:00,39.7,32.8,30.08,NNE,12,14.2,15.4,76,0.00,,,0.00,CWS Microserver 1.4,2013-05-10 08:59:00,
2013-05-10 04:04:00,39.7,32.7,30.08,NNE,18,11.5,15.2,75,0.00,,,0.00,CWS Microserver 1.4,2013-05-10 09:04:00,
2013-05-10 04:09:00,39.5,32.4,30.08,NNE,17,12.7,15.2,75,0.00,,,0.00,CWS Microserver 1.4,2013-05-10 09:09:00,
2013-05-10 04:14:00,39.2,32.4,30.08,NNE,19,10.7,14.8,76,0.00,,,0.00,CWS Microserver 1.4,2013-05-10 09:14:00,
2013-05-10 04:19:00,39.2,32.5,30.08,NNE,17,12.3,14.7,76,0.00,,,0.00,CWS Microserver 1.4,2013-05-10 09:19:00,
2013-05-10 04:24:00,39.0,32.3,30.08,NNE,21,9.7,15.0,76,0.00,,,0.00,CWS Microserver 1.4,2013-05-10 09:24:00,
2013-05-10 04:29:00,39.0,32.1,30.08,North,3,8.2,15.7,76,0.00,,,0.00,CWS Microserver 1.4,2013-05-10 09:29:00,
2013-05-10 04:34:00,39.0,32.1,30.08,North,10,8.4,15.7,76,0.00,,,0.00,CWS Microserver 1.4,2013-05-10 09:34:00,
2013-05-10 04:39:00,39.0,31.8,30.08,NNE,14,12.6,15.0,75,0.00,,,0.00,CWS Microserver 1.4,2013-05-10 09:39:00,
2013-05-10 04:44:00,38.8,32.0,30.08,NNE,16,11.9,16.9,76,0.00,,,0.00,CWS Microserver 1.4,2013-05-10 09:44:00,
2013-05-10 04:49:00,38.6,31.0,30.08,NNE,18,12.9,17.4,74,0.00,,,0.00,CWS Microserver 1.4,2013-05-10 09:49:00,
2013-05-10 04:54:00,38.3,30.8,30.08,NNE,15,13.9,17.4,74,0.00,,,0.00,CWS Microserver 1.4,2013-05-10 09:54:00,
2013-05-10 04:59:00,38.3,30.4,30.08,NNE,21,14.5,16.1,73,0.00,,,0.00,CWS Microserver 1.4,2013-05-10 09:59:00,
2013-05-10 05:04:00,38.1,30.2,30.08,NNE,28,11.0,15.7,73,0.00,,,0.00,CWS Microserver 1.4,2013-05-10 10:04:00,
2013-05-10 05:09:00,38.3,30.9,30.09,NNE,23,8.1,14.9,74,0.00,,,0.00,CWS Microserver 1.4,2013-05-10 10:09:00,
2013-05-10 05:14:00,37.9,30.4,30.09,NNE,24,11.4,14.9,74,0.00,,,0.00,CWS Microserver 1.4,2013-05-10 10:14:00,
2013-05-10 05:19:00,37.9,30.6,30.09,NNE,18,10.0,13.3,74,0.00,,,0.00,CWS Microserver 1.4,2013-05-10 10:19:00,
2013-05-10 05:24:00,37.9,30.4,30.09,North,6,9.7,13.3,74,0.00,,,0.00,CWS Microserver 1.4,2013-05-10 10:24:00,
2013-05-10 05:29:00,37.5,30.5,30.09,NNE,17,7.3,11.9,75,0.00,,,0.00,CWS Microserver 1.4,2013-05-10 10:29:00,
2013-05-10 05:34:00,37.4,30.1,30.09,NNE,12,6.6,10.9,74,0.00,,,0.00,CWS Microserver 1.4,2013-05-10 10:34:00,
2013-05-10 05:39:00,37.5,30.1,30.09,North,11,8.0,9.3,74,0.00,,,0.00,CWS Microserver 1.4,2013-05-10 10:39:00,
2013-05-10 05:44:00,37.4,29.9,30.09,NNE,15,5.6,8.5,74,0.00,,,0.00,CWS Microserver 1.4,2013-05-10 10:44:00,
2013-05-10 05:49:00,37.4,29.6,30.09,NNW,340,5.2,8.8,73,0.00,,,0.00,CWS Microserver 1.4,2013-05-10 10:49:00,
2013-05-10 05:59:00,37.5,29.5,30.09,NNW,345,6.0,10.7,72,0.00,,,0.00,CWS Microserver 1.4,2013-05-10 10:59:00,
2013-05-10 06:04:00,37.4,29.5,30.09,NNW,345,7.9,11.4,72,0.00,,,0.00,CWS Microserver 1.4,2013-05-10 11:04:00,
2013-05-10 06:09:00,37.2,29.4,30.09,NNW,341,7.2,11.5,73,0.00,,,0.00,CWS Microserver 1.4,2013-05-10 11:09:00,
2013-05-10 06:14:00,37.0,29.7,30.10,NNW,343,8.2,11.5,74,0.00,,,0.00,CWS Microserver 1.4,2013-05-10 11:14:00,
2013-05-10 06:19:00,36.6,29.8,30.09,NNW,341,7.9,10.4,76,0.00,,,0.00,CWS Microserver 1.4,2013-05-10 11:19:00,
2013-05-10 06:24:00,36.6,29.7,30.10,NNW,344,7.4,11.4,75,0.00,,,0.00,CWS Microserver 1.4,2013-05-10 11:24:00,
2013-05-10 06:29:00,36.8,29.7,30.10,NNW,337,5.4,11.4,75,0.00,,,0.00,CWS Microserver 1.4,2013-05-10 11:29:00,
2013-05-10 06:34:00,36.5,29.6,30.10,NNW,340,7.1,9.0,75,0.00,,,0.00,CWS Microserver 1.4,2013-05-10 11:34:00,
2013-05-10 06:39:00,36.6,29.6,30.10,NNW,331,8.2,9.9,75,0.00,,,0.00,CWS Microserver 1.4,2013-05-10 11:39:00,
2013-05-10 06:44:00,36.8,29.5,30.10,North,9,4.8,9.9,74,0.00,,,0.00,CWS Microserver 1.4,2013-05-10 11:44:00,
2013-05-10 06:49:00,37.4,28.8,30.10,North,349,7.3,11.0,71,0.00,,,0.00,CWS Microserver 1.4,2013-05-10 11:49:00,
2013-05-10 06:54:00,37.7,29.1,30.10,NNW,336,8.2,12.2,70,0.00,,,0.00,CWS Microserver 1.4,2013-05-10 11:54:00,
2013-05-10 06:59:00,37.9,29.7,30.10,NNW,345,9.9,12.2,72,0.00,,,0.00,CWS Microserver 1.4,2013-05-10 11:59:00,
2013-05-10 07:04:00,37.9,28.9,30.10,North,0,3.0,10.5,69,0.00,,,0.00,CWS Microserver 1.4,2013-05-10 12:04:00,
2013-05-10 07:09:00,38.3,29.0,30.10,NNW,346,6.4,10.4,69,0.00,,,0.00,CWS Microserver 1.4,2013-05-10 12:09:00,
2013-05-10 07:14:00,38.4,28.8,30.10,NNW,347,8.0,12.0,68,0.00,,,0.00,CWS Microserver 1.4,2013-05-10 12:14:00,
2013-05-10 07:19:00,38.4,28.5,30.10,North,1,9.3,12.0,67,0.00,,,0.00,CWS Microserver 1.4,2013-05-10 12:19:00,
2013-05-10 07:24:00,38.6,29.2,30.10,NNW,347,9.3,14.6,68,0.00,,,0.00,CWS Microserver 1.4,2013-05-10 12:24:00,
2013-05-10 07:29:00,38.8,29.1,30.10,NNW,342,7.2,14.6,68,0.00,,,0.00,CWS Microserver 1.4,2013-05-10 12:29:00,
2013-05-10 07:34:00,38.8,29.4,30.10,NNW,348,8.7,12.1,68,0.00,,,0.00,CWS Microserver 1.4,2013-05-10 12:34:00,
2013-05-10 07:39:00,38.8,29.1,30.10,North,4,9.8,14.7,67,0.00,,,0.00,CWS Microserver 1.4,2013-05-10 12:39:00,
2013-05-10 07:44:00,39.2,29.6,30.10,North,358,7.4,14.7,68,0.00,,,0.00,CWS Microserver 1.4,2013-05-10 12:44:00,
2013-05-10 07:49:00,39.3,30.8,30.10,North,351,7.2,14.2,71,0.00,,,0.00,CWS Microserver 1.4,2013-05-10 12:49:00,
2013-05-10 07:54:00,39.5,29.9,30.10,NNE,17,10.7,14.2,68,0.00,,,0.00,CWS Microserver 1.4,2013-05-10 12:54:00,
2013-05-10 07:59:00,39.3,29.5,30.10,North,3,8.7,14.2,67,0.00,,,0.00,CWS Microserver 1.4,2013-05-10 12:59:00,
2013-05-10 08:04:00,39.7,29.8,30.10,North,2,11.2,13.9,67,0.00,,,0.00,CWS Microserver 1.4,2013-05-10 13:04:00,
2013-05-10 08:09:00,39.7,29.3,30.10,North,10,8.8,15.5,66,0.00,,,0.00,CWS Microserver 1.4,2013-05-10 13:09:00,
2013-05-10 08:14:00,39.9,30.1,30.10,NNW,347,9.2,15.5,67,0.00,,,0.00,CWS Microserver 1.4,2013-05-10 13:14:00,
2013-05-10 08:19:00,39.9,30.9,30.10,NE,46,5.5,15.5,69,0.00,,,0.00,CWS Microserver 1.4,2013-05-10 13:19:00,
2013-05-10 08:24:00,40.1,29.9,30.10,North,5,14.1,17.2,66,0.00,,,0.00,CWS Microserver 1.4,2013-05-10 13:24:00,
2013-05-10 08:29:00,40.4,29.9,30.10,NNE,22,12.2,17.2,65,0.00,,,0.00,CWS Microserver 1.4,2013-05-10 13:29:00,
2013-05-10 08:34:00,40.6,31.1,30.10,NNE,12,11.3,16.1,68,0.00,,,0.00,CWS Microserver 1.4,2013-05-10 13:34:00,
2013-05-10 08:39:00,41.0,31.2,30.10,NNE,24,8.7,15.7,68,0.00,,,0.00,CWS Microserver 1.4,2013-05-10 13:39:00,
2013-05-10 08:44:00,41.0,31.2,30.11,ENE,57,2.9,15.0,68,0.00,,,0.00,CWS Microserver 1.4,2013-05-10 13:44:00,
2013-05-10 08:49:00,41.1,30.1,30.11,NNE,31,9.4,15.5,64,0.00,,,0.00,CWS Microserver 1.4,2013-05-10 13:49:00,
2013-05-10 08:54:00,41.5,30.8,30.11,NNE,24,11.8,15.5,65,0.00,,,0.00,CWS Microserver 1.4,2013-05-10 13:54:00,
2013-05-10 08:59:00,41.5,30.8,30.11,NNE,23,12.1,13.7,65,0.00,,,0.00,CWS Microserver 1.4,2013-05-10 13:59:00,
2013-05-10 09:04:00,41.7,31.8,30.11,North,4,8.6,13.7,67,0.00,,,0.00,CWS Microserver 1.4,2013-05-10 14:04:00,
2013-05-10 09:09:00,41.9,31.8,30.11,NNE,24,9.1,15.9,67,0.00,,,0.00,CWS Microserver 1.4,2013-05-10 14:09:00,
2013-05-10 09:14:00,42.2,32.3,30.10,NNE,24,10.7,15.9,67,0.00,,,0.00,CWS Microserver 1.4,2013-05-10 14:14:00,
2013-05-10 09:19:00,42.2,31.5,30.10,NNE,17,11.2,14.0,65,0.00,,,0.00,CWS Microserver 1.4,2013-05-10 14:19:00,
2013-05-10 09:24:00,42.6,33.4,30.10,NNE,20,7.2,15.3,69,0.00,,,0.00,CWS Microserver 1.4,2013-05-10 14:24:00,
2013-05-10 09:29:00,42.2,31.6,30.10,NNE,22,11.9,15.3,65,0.00,,,0.00,CWS Microserver 1.4,2013-05-10 14:29:00,
2013-05-10 09:34:00,42.8,32.7,30.10,NNE,25,4.9,15.5,67,0.00,,,0.00,CWS Microserver 1.4,2013-05-10 14:34:00,
2013-05-10 09:39:00,43.1,32.5,30.10,NNE,19,12.6,15.5,66,0.00,,,0.00,CWS Microserver 1.4,2013-05-10 14:39:00,
2013-05-10 09:44:00,43.7,34.7,30.10,North,0,8.7,15.0,70,0.00,,,0.00,CWS Microserver 1.4,2013-05-10 14:44:00,
2013-05-10 09:49:00,44.0,35.0,30.10,NNE,21,6.6,14.2,70,0.00,,,0.00,CWS Microserver 1.4,2013-05-10 14:49:00,
2013-05-10 09:54:00,44.4,34.1,30.10,NNE,13,8.0,13.6,66,0.00,,,0.00,CWS Microserver 1.4,2013-05-10 14:54:00,
2013-05-10 09:59:00,44.7,35.0,30.10,NE,37,4.0,13.6,68,0.00,,,0.00,CWS Microserver 1.4,2013-05-10 14:59:00,
2013-05-10 10:04:00,44.9,35.3,30.10,NNE,13,9.0,13.7,68,0.00,,,0.00,CWS Microserver 1.4,2013-05-10 15:04:00,
2013-05-10 10:09:00,44.7,33.9,30.10,North,355,8.7,14.8,65,0.00,,,0.00,CWS Microserver 1.4,2013-05-10 15:09:00,
2013-05-10 10:14:00,45.5,35.8,30.09,NE,35,9.3,14.8,68,0.00,,,0.00,CWS Microserver 1.4,2013-05-10 15:14:00,
2013-05-10 10:19:00,45.3,34.6,30.09,North,351,6.3,12.3,66,0.00,,,0.00,CWS Microserver 1.4,2013-05-10 15:19:00,
2013-05-10 10:24:00,45.5,35.7,30.09,NNE,17,11.3,12.4,68,0.00,,,0.00,CWS Microserver 1.4,2013-05-10 15:24:00,
2013-05-10 10:29:00,46.0,36.7,30.09,NNE,16,12.9,15.4,69,0.00,,,0.00,CWS Microserver 1.4,2013-05-10 15:29:00,
2013-05-10 10:34:00,46.5,36.1,30.09,North,6,10.6,15.4,66,0.00,,,0.00,CWS Microserver 1.4,2013-05-10 15:34:00,
2013-05-10 10:39:00,46.4,36.3,30.09,North,3,13.8,15.6,67,0.00,,,0.00,CWS Microserver 1.4,2013-05-10 15:39:00,
2013-05-10 10:44:00,46.5,36.1,30.09,NNW,328,4.8,15.6,66,0.00,,,0.00,CWS Microserver 1.4,2013-05-10 15:44:00,
2013-05-10 10:49:00,47.8,36.7,30.09,NNW,343,4.5,14.7,65,0.00,,,0.00,CWS Microserver 1.4,2013-05-10 15:49:00,
2013-05-10 10:54:00,47.6,38.1,30.09,NNE,12,5.7,13.4,69,0.00,,,0.00,CWS Microserver 1.4,2013-05-10 15:54:00,
2013-05-10 10:59:00,48.2,37.8,30.09,NNW,334,3.0,13.4,67,0.00,,,0.00,CWS Microserver 1.4,2013-05-10 15:59:00,
2013-05-10 11:04:00,49.2,38.2,30.09,North,350,11.2,14.4,65,0.00,,,0.00,CWS Microserver 1.4,2013-05-10 16:04:00,
2013-05-10 11:09:00,48.7,37.8,30.09,North,9,9.9,14.4,65,0.00,,,0.00,CWS Microserver 1.4,2013-05-10 16:09:00,
2013-05-10 11:14:00,49.2,38.6,30.09,NNW,331,5.6,13.7,66,0.00,,,0.00,CWS Microserver 1.4,2013-05-10 16:14:00,
2013-05-10 11:19:00,49.6,37.3,30.09,North,359,8.6,13.7,62,0.00,,,0.00,CWS Microserver 1.4,2013-05-10 16:19:00,
2013-05-10 11:24:00,49.6,39.1,30.10,North,359,13.4,13.4,67,0.00,,,0.00,CWS Microserver 1.4,2013-05-10 16:24:00,
2013-05-10 11:29:00,50.0,39.6,30.09,NW,307,7.0,15.2,67,0.00,,,0.00,CWS Microserver 1.4,2013-05-10 16:29:00,
2013-05-10 11:34:00,50.7,38.5,30.09,NNW,327,8.9,15.2,63,0.00,,,0.00,CWS Microserver 1.4,2013-05-10 16:34:00,
2013-05-10 11:39:00,50.5,38.1,30.09,NW,307,10.7,14.7,62,0.00,,,0.00,CWS Microserver 1.4,2013-05-10 16:39:00,
2013-05-10 11:44:00,51.4,38.8,30.09,North,10,13.7,16.5,62,0.00,,,0.00,CWS Microserver 1.4,2013-05-10 16:44:00,
2013-05-10 11:49:00,51.0,38.8,30.09,NNE,17,7.1,16.5,62,0.00,,,0.00,CWS Microserver 1.4,2013-05-10 16:49:00,
2013-05-10 11:54:00,50.7,39.1,30.09,NNE,20,9.3,15.3,64,0.00,,,0.00,CWS Microserver 1.4,2013-05-10 16:54:00,
2013-05-10 11:59:00,51.4,39.1,30.09,NNW,345,8.5,15.3,62,0.00,,,0.00,CWS Microserver 1.4,2013-05-10 16:59:00,
2013-05-10 12:04:00,52.1,38.0,30.09,NNE,22,11.6,14.3,58,0.00,,,0.00,CWS Microserver 1.4,2013-05-10 17:04:00,
2013-05-10 12:09:00,52.7,38.7,30.09,NNW,344,13.4,15.1,59,0.00,,,0.00,CWS Microserver 1.4,2013-05-10 17:09:00,
2013-05-10 12:14:00,53.0,39.6,30.09,NNE,22,11.2,15.1,60,0.00,,,0.00,CWS Microserver 1.4,2013-05-10 17:14:00,
2013-05-10 12:19:00,53.2,39.7,30.09,NNE,15,13.4,17.7,60,0.00,,,0.00,CWS Microserver 1.4,2013-05-10 17:19:00,
2013-05-10 12:24:00,52.8,39.1,30.08,North,6,11.3,17.7,59,0.00,,,0.00,CWS Microserver 1.4,2013-05-10 17:24:00,
2013-05-10 12:29:00,53.0,39.2,30.08,North,358,7.4,16.1,59,0.00,,,0.00,CWS Microserver 1.4,2013-05-10 17:29:00,
2013-05-10 12:34:00,54.1,40.9,30.08,North,359,11.6,15.6,61,0.00,,,0.00,CWS Microserver 1.4,2013-05-10 17:34:00,
2013-05-10 12:39:00,53.9,39.7,30.08,NW,309,5.3,17.3,58,0.00,,,0.00,CWS Microserver 1.4,2013-05-10 17:39:00,
2013-05-10 12:44:00,54.5,36.8,30.08,North,9,9.8,17.3,51,0.00,,,0.00,CWS Microserver 1.4,2013-05-10 17:44:00,
2013-05-10 12:49:00,53.7,38.2,30.08,NNE,15,10.2,14.6,55,0.00,,,0.00,CWS Microserver 1.4,2013-05-10 17:49:00,
2013-05-10 12:54:00,54.6,37.2,30.08,North,349,6.5,14.3,51,0.00,,,0.00,CWS Microserver 1.4,2013-05-10 17:54:00,
2013-05-10 12:59:00,55.0,38.1,30.08,North,2,8.5,13.9,52,0.00,,,0.00,CWS Microserver 1.4,2013-05-10 17:59:00,
2013-05-10 13:04:00,55.4,37.9,30.08,WNW,303,7.6,13.5,51,0.00,,,0.00,CWS Microserver 1.4,2013-05-10 18:04:00,
2013-05-10 13:09:00,55.7,37.2,30.08,North,8,9.3,13.5,49,0.00,,,0.00,CWS Microserver 1.4,2013-05-10 18:09:00,
2013-05-10 13:14:00,55.7,38.1,30.08,NNW,337,10.8,13.9,51,0.00,,,0.00,CWS Microserver 1.4,2013-05-10 18:14:00,
2013-05-10 13:19:00,56.1,35.7,30.08,North,357,13.5,20.2,46,0.00,,,0.00,CWS Microserver 1.4,2013-05-10 18:19:00,
2013-05-10 13:24:00,56.3,34.4,30.07,NNW,345,9.3,20.2,43,0.00,,,0.00,CWS Microserver 1.4,2013-05-10 18:24:00,
2013-05-10 13:29:00,55.9,36.1,30.07,North,5,9.0,14.9,47,0.00,,,0.00,CWS Microserver 1.4,2013-05-10 18:29:00,
2013-05-10 13:34:00,57.0,35.0,30.07,NE,42,8.6,14.6,43,0.00,,,0.00,CWS Microserver 1.4,2013-05-10 18:34:00,
2013-05-10 13:39:00,56.3,35.7,30.07,NNE,19,11.7,15.9,45,0.00,,,0.00,CWS Microserver 1.4,2013-05-10 18:39:00,
2013-05-10 13:44:00,57.5,36.1,30.07,NW,304,11.2,15.9,44,0.00,,,0.00,CWS Microserver 1.4,2013-05-10 18:44:00,
2013-05-10 13:49:00,57.7,36.5,30.07,North,351,5.6,12.9,45,0.00,,,0.00,CWS Microserver 1.4,2013-05-10 18:49:00,
2013-05-10 13:54:00,57.5,35.1,30.07,NW,317,6.9,13.3,42,0.00,,,0.00,CWS Microserver 1.4,2013-05-10 18:54:00,
2013-05-10 13:59:00,57.3,33.3,30.07,NW,316,3.5,13.3,40,0.00,,,0.00,CWS Microserver 1.4,2013-05-10 18:59:00,
2013-05-10 14:04:00,57.5,34.7,30.07,NW,321,6.6,12.7,42,0.00,,,0.00,CWS Microserver 1.4,2013-05-10 19:04:00,
2013-05-10 14:09:00,57.9,31.4,30.07,NW,318,9.5,12.7,36,0.00,,,0.00,CWS Microserver 1.4,2013-05-10 19:09:00,
2013-05-10 14:14:00,57.5,31.7,30.06,WNW,299,1.5,14.7,37,0.00,,,0.00,CWS Microserver 1.4,2013-05-10 19:14:00,
2013-05-10 14:19:00,58.2,36.5,30.06,North,6,7.4,14.7,44,0.00,,,0.00,CWS Microserver 1.4,2013-05-10 19:19:00,
2013-05-10 14:24:00,58.6,34.0,30.06,North,1,12.3,13.8,39,0.00,,,0.00,CWS Microserver 1.4,2013-05-10 19:24:00,
2013-05-10 14:29:00,58.1,34.5,30.06,NNW,345,8.5,13.8,41,0.00,,,0.00,CWS Microserver 1.4,2013-05-10 19:29:00,
2013-05-10 14:34:00,58.1,31.4,30.06,North,351,6.6,13.5,36,0.00,,,0.00,CWS Microserver 1.4,2013-05-10 19:34:00,
2013-05-10 14:39:00,58.4,31.1,30.06,NNE,18,8.6,13.8,35,0.00,,,0.00,CWS Microserver 1.4,2013-05-10 19:39:00,
2013-05-10 14:44:00,58.8,31.1,30.06,North,352,9.3,13.8,34,0.00,,,0.00,CWS Microserver 1.4,2013-05-10 19:44:00,
2013-05-10 14:49:00,58.8,33.4,30.05,NW,308,9.9,11.6,38,0.00,,,0.00,CWS Microserver 1.4,2013-05-10 19:49:00,
2013-05-10 14:54:00,59.1,33.7,30.05,North,6,1.8,10.3,38,0.00,,,0.00,CWS Microserver 1.4,2013-05-10 19:54:00,
2013-05-10 14:59:00,59.0,32.0,30.05,North,1,5.4,11.8,36,0.00,,,0.00,CWS Microserver 1.4,2013-05-10 19:59:00,
2013-05-10 15:04:00,60.0,34.0,30.05,NNW,329,3.4,11.8,37,0.00,,,0.00,CWS Microserver 1.4,2013-05-10 20:04:00,
2013-05-10 15:09:00,60.0,31.4,30.05,NNW,343,5.1,11.5,33,0.00,,,0.00,CWS Microserver 1.4,2013-05-10 20:09:00,
2013-05-10 15:14:00,59.7,29.2,30.05,NW,314,2.9,11.5,31,0.00,,,0.00,CWS Microserver 1.4,2013-05-10 20:14:00,
2013-05-10 15:19:00,60.4,34.4,30.04,North,349,1.4,10.2,37,0.00,,,0.00,CWS Microserver 1.4,2013-05-10 20:19:00,
2013-05-10 15:24:00,60.4,32.0,30.04,North,0,4.6,11.0,34,0.00,,,0.00,CWS Microserver 1.4,2013-05-10 20:24:00,
2013-05-10 15:29:00,60.4,33.7,30.03,NE,54,6.7,11.0,36,0.00,,,0.00,CWS Microserver 1.4,2013-05-10 20:29:00,
2013-05-10 15:34:00,60.2,30.3,30.03,North,6,7.8,14.3,32,0.00,,,0.00,CWS Microserver 1.4,2013-05-10 20:34:00,
2013-05-10 15:39:00,60.2,30.4,30.03,NNE,29,3.6,14.3,32,0.00,,,0.00,CWS Microserver 1.4,2013-05-10 20:39:00,
2013-05-10 15:44:00,61.5,31.5,30.03,NW,315,7.0,9.4,32,0.00,,,0.00,CWS Microserver 1.4,2013-05-10 20:44:00,
2013-05-10 15:49:00,61.3,29.0,30.03,West,281,13.8,14.5,29,0.00,,,0.00,CWS Microserver 1.4,2013-05-10 20:49:00,
2013-05-10 15:54:00,61.1,29.0,30.03,WNW,290,8.9,14.5,29,0.00,,,0.00,CWS Microserver 1.4,2013-05-10 20:54:00,
2013-05-10 15:59:00,61.1,25.9,30.03,NNW,345,6.6,14.5,26,0.00,,,0.00,CWS Microserver 1.4,2013-05-10 20:59:00,
2013-05-10 16:04:00,61.8,30.5,30.03,WNW,303,7.5,11.0,30,0.00,,,0.00,CWS Microserver 1.4,2013-05-10 21:04:00,
2013-05-10 16:09:00,61.7,30.7,30.02,NW,314,4.5,10.0,31,0.00,,,0.00,CWS Microserver 1.4,2013-05-10 21:09:00,
2013-05-10 16:14:00,61.7,29.3,30.02,NNW,343,1.3,11.0,29,0.00,,,0.00,CWS Microserver 1.4,2013-05-10 21:14:00,
2013-05-10 16:19:00,62.0,31.0,30.02,NNW,337,4.6,12.6,31,0.00,,,0.00,CWS Microserver 1.4,2013-05-10 21:19:00,
2013-05-10 16:24:00,62.6,31.1,30.02,NNW,333,8.9,12.6,30,0.00,,,0.00,CWS Microserver 1.4,2013-05-10 21:24:00,
2013-05-10 16:29:00,62.4,28.2,30.01,NW,318,5.9,12.3,27,0.00,,,0.00,CWS Microserver 1.4,2013-05-10 21:29:00,
2013-05-10 16:34:00,62.6,27.4,30.01,NW,325,11.2,12.7,26,0.00,,,0.00,CWS Microserver 1.4,2013-05-10 21:34:00,
2013-05-10 16:39:00,62.7,29.6,30.01,West,278,12.5,13.2,28,0.00,,,0.00,CWS Microserver 1.4,2013-05-10 21:39:00,
2013-05-10 16:44:00,62.7,30.7,30.01,WNW,282,10.1,14.6,30,0.00,,,0.00,CWS Microserver 1.4,2013-05-10 21:44:00,
2013-05-10 16:49:00,62.9,30.1,30.01,NW,317,8.5,14.6,29,0.00,,,0.00,CWS Microserver 1.4,2013-05-10 21:49:00,
2013-05-10 16:54:00,63.1,30.6,30.01,NNW,332,9.6,13.8,29,0.00,,,0.00,CWS Microserver 1.4,2013-05-10 21:54:00,
2013-05-10 16:59:00,62.9,31.2,30.00,WNW,301,7.7,15.3,30,0.00,,,0.00,CWS Microserver 1.4,2013-05-10 21:59:00,
2013-05-10 17:04:00,63.1,30.1,30.00,NW,315,8.5,15.3,28,0.00,,,0.00,CWS Microserver 1.4,2013-05-10 22:04:00,
2013-05-10 17:09:00,62.9,31.0,30.00,West,272,7.4,15.1,30,0.00,,,0.00,CWS Microserver 1.4,2013-05-10 22:09:00,
2013-05-10 17:14:00,63.1,29.5,30.00,West,266,8.5,15.1,28,0.00,,,0.00,CWS Microserver 1.4,2013-05-10 22:14:00,
2013-05-10 17:19:00,63.1,30.5,30.00,NW,319,4.3,14.4,29,0.00,,,0.00,CWS Microserver 1.4,2013-05-10 22:19:00,
2013-05-10 17:24:00,63.3,30.0,30.00,NW,308,6.7,12.9,28,0.00,,,0.00,CWS Microserver 1.4,2013-05-10 22:24:00,
2013-05-10 17:29:00,63.8,28.6,30.00,WNW,294,10.0,15.0,26,0.00,,,0.00,CWS Microserver 1.4,2013-05-10 22:29:00,
2013-05-10 17:34:00,63.3,30.8,29.99,West,280,6.1,15.0,29,0.00,,,0.00,CWS Microserver 1.4,2013-05-10 22:34:00,
2013-05-10 17:39:00,63.5,30.0,29.99,NW,304,10.3,14.4,28,0.00,,,0.00,CWS Microserver 1.4,2013-05-10 22:39:00,
2013-05-10 17:44:00,63.8,30.2,29.99,NW,314,9.1,14.4,28,0.00,,,0.00,CWS Microserver 1.4,2013-05-10 22:44:00,
2013-05-10 17:49:00,63.8,29.9,29.99,NNW,328,6.8,13.3,27,0.00,,,0.00,CWS Microserver 1.4,2013-05-10 22:49:00,
2013-05-10 17:54:00,64.2,29.6,29.99,WNW,286,4.8,13.3,27,0.00,,,0.00,CWS Microserver 1.4,2013-05-10 22:54:00,
2013-05-10 17:59:00,63.8,27.8,29.99,WNW,286,5.5,11.6,25,0.00,,,0.00,CWS Microserver 1.4,2013-05-10 22:59:00,
2013-05-10 18:04:00,63.8,30.3,29.98,West,267,5.5,13.3,28,0.00,,,0.00,CWS Microserver 1.4,2013-05-10 23:04:00,
2013-05-10 18:09:00,63.6,27.3,29.98,NNW,337,5.2,13.3,25,0.00,,,0.00,CWS Microserver 1.4,2013-05-10 23:09:00,
2013-05-10 18:14:00,64.2,29.1,29.98,WNW,298,9.9,13.1,26,0.00,,,0.00,CWS Microserver 1.4,2013-05-10 23:14:00,
2013-05-10 18:19:00,64.2,28.5,29.98,West,278,6.4,12.6,26,0.00,,,0.00,CWS Microserver 1.4,2013-05-10 23:19:00,
2013-05-10 18:24:00,64.2,29.2,29.98,WNW,285,7.2,14.0,26,0.00,,,0.00,CWS Microserver 1.4,2013-05-10 23:24:00,
2013-05-10 18:29:00,64.2,29.4,29.98,West,278,13.1,14.0,27,0.00,,,0.00,CWS Microserver 1.4,2013-05-10 23:29:00,
2013-05-10 18:34:00,64.0,29.5,29.98,WNW,283,8.4,14.3,27,0.00,,,0.00,CWS Microserver 1.4,2013-05-10 23:34:00,
2013-05-10 18:39:00,64.0,30.2,29.98,NW,304,4.5,15.5,28,0.00,,,0.00,CWS Microserver 1.4,2013-05-10 23:39:00,
2013-05-10 18:44:00,64.2,28.4,29.98,West,274,11.6,15.5,25,0.00,,,0.00,CWS Microserver 1.4,2013-05-10 23:44:00,
2013-05-10 18:49:00,64.0,26.9,29.98,WNW,303,8.3,17.0,24,0.00,,,0.00,CWS Microserver 1.4,2013-05-10 23:49:00,
2013-05-10 18:54:00,64.0,27.8,29.97,WNW,300,6.6,17.0,25,0.00,,,0.00,CWS Microserver 1.4,2013-05-10 23:54:00,
2013-05-10 18:59:00,64.0,25.2,29.97,WNW,289,10.5,13.7,22,0.00,,,0.00,CWS Microserver 1.4,2013-05-10 23:59:00,
2013-05-10 19:04:00,63.8,25.5,29.97,WNW,282,11.5,13.0,23,0.00,,,0.00,CWS Microserver 1.4,2013-05-11 00:04:00,
2013-05-10 19:09:00,63.8,26.4,29.97,NW,305,7.1,13.5,24,0.00,,,0.00,CWS Microserver 1.4,2013-05-11 00:09:00,
2013-05-10 19:14:00,63.8,28.2,29.97,West,279,10.0,13.5,26,0.00,,,0.00,CWS Microserver 1.4,2013-05-11 00:14:00,
2013-05-10 19:19:00,63.6,29.8,29.97,West,260,6.1,12.1,28,0.00,,,0.00,CWS Microserver 1.4,2013-05-11 00:19:00,
2013-05-10 19:24:00,63.6,29.5,29.97,WNW,292,8.5,11.0,27,0.00,,,0.00,CWS Microserver 1.4,2013-05-11 00:24:00,
2013-05-10 19:29:00,63.6,30.0,29.97,NW,307,5.9,11.0,28,0.00,,,0.00,CWS Microserver 1.4,2013-05-11 00:29:00,
2013-05-10 19:34:00,63.5,30.7,29.97,WNW,294,5.2,10.2,29,0.00,,,0.00,CWS Microserver 1.4,2013-05-11 00:34:00,
2013-05-10 19:39:00,63.5,30.8,29.97,NW,305,5.3,9.7,29,0.00,,,0.00,CWS Microserver 1.4,2013-05-11 00:39:00,
2013-05-10 19:44:00,63.1,30.5,29.97,WNW,298,5.6,8.5,29,0.00,,,0.00,CWS Microserver 1.4,2013-05-11 00:44:00,
2013-05-10 19:49:00,63.1,29.8,29.97,NW,310,5.2,8.9,28,0.00,,,0.00,CWS Microserver 1.4,2013-05-11 00:49:00,
2013-05-10 19:54:00,62.9,31.7,29.97,WNW,289,3.4,8.9,30,0.00,,,0.00,CWS Microserver 1.4,2013-05-11 00:54:00,
2013-05-10 19:59:00,62.6,33.1,29.97,WNW,300,4.2,6.2,33,0.00,,,0.00,CWS Microserver 1.4,2013-05-11 00:59:00,
2013-05-10 20:04:00,62.2,33.3,29.97,WNW,286,4.3,6.6,33,0.00,,,0.00,CWS Microserver 1.4,2013-05-11 01:04:00,
2013-05-10 20:09:00,62.0,33.2,29.96,WNW,289,4.8,6.6,33,0.00,,,0.00,CWS Microserver 1.4,2013-05-11 01:09:00,
2013-05-10 20:14:00,61.5,33.3,29.96,WNW,297,3.1,5.5,34,0.00,,,0.00,CWS Microserver 1.4,2013-05-11 01:14:00,
2013-05-10 20:19:00,61.1,32.4,29.96,West,276,3.4,4.8,33,0.00,,,0.00,CWS Microserver 1.4,2013-05-11 01:19:00,
2013-05-10 20:24:00,61.3,33.2,29.96,West,275,3.8,4.0,34,0.00,,,0.00,CWS Microserver 1.4,2013-05-11 01:24:00,
2013-05-10 20:29:00,61.3,33.1,29.96,West,267,2.9,4.1,34,0.00,,,0.00,CWS Microserver 1.4,2013-05-11 01:29:00,
2013-05-10 20:34:00,61.3,35.4,29.96,SSW,209,1.1,4.1,37,0.00,,,0.00,CWS Microserver 1.4,2013-05-11 01:34:00,
2013-05-10 20:39:00,60.8,34.2,29.96,WSW,245,1.7,3.7,36,0.00,,,0.00,CWS Microserver 1.4,2013-05-11 01:39:00,
2013-05-10 20:44:00,60.4,34.2,29.96,West,261,1.0,3.1,37,0.00,,,0.00,CWS Microserver 1.4,2013-05-11 01:44:00,
2013-05-10 20:49:00,60.4,33.5,29.96,SW,217,3.0,3.2,36,0.00,,,0.00,CWS Microserver 1.4,2013-05-11 01:49:00,
2013-05-10 20:54:00,60.4,32.9,29.95,WSW,238,4.6,5.3,35,0.00,,,0.00,CWS Microserver 1.4,2013-05-11 01:54:00,
2013-05-10 20:59:00,60.4,32.4,29.95,WSW,245,5.2,5.3,34,0.00,,,0.00,CWS Microserver 1.4,2013-05-11 01:59:00,
2013-05-10 21:04:00,60.6,33.2,29.96,WSW,254,2.9,5.3,35,0.00,,,0.00,CWS Microserver 1.4,2013-05-11 02:04:00,
2013-05-10 21:09:00,60.4,33.6,29.96,WSW,238,4.6,5.3,36,0.00,,,0.00,CWS Microserver 1.4,2013-05-11 02:09:00,
2013-05-10 21:14:00,60.0,33.5,29.96,SW,232,4.4,6.9,36,0.00,,,0.00,CWS Microserver 1.4,2013-05-11 02:14:00,
2013-05-10 21:19:00,59.9,33.9,29.95,SW,229,5.0,7.1,37,0.00,,,0.00,CWS Microserver 1.4,2013-05-11 02:19:00,
2013-05-10 21:24:00,59.3,33.8,29.95,WSW,239,4.7,7.1,38,0.00,,,0.00,CWS Microserver 1.4,2013-05-11 02:24:00,
2013-05-10 21:29:00,59.0,34.5,29.95,SW,215,4.8,6.2,39,0.00,,,0.00,CWS Microserver 1.4,2013-05-11 02:29:00,
2013-05-10 21:34:00,58.6,34.7,29.96,WSW,239,5.2,6.0,40,0.00,,,0.00,CWS Microserver 1.4,2013-05-11 02:34:00,
2013-05-10 21:39:00,58.6,34.6,29.96,SW,223,3.8,7.2,40,0.00,,,0.00,CWS Microserver 1.4,2013-05-11 02:39:00,
2013-05-10 21:44:00,58.2,35.7,29.96,SW,217,8.1,8.3,42,0.00,,,0.00,CWS Microserver 1.4,2013-05-11 02:44:00,
2013-05-10 21:49:00,57.7,35.9,29.96,SW,233,6.5,8.3,44,0.00,,,0.00,CWS Microserver 1.4,2013-05-11 02:49:00,
2013-05-10 21:54:00,57.3,35.8,29.96,SW,234,7.3,8.3,44,0.00,,,0.00,CWS Microserver 1.4,2013-05-11 02:54:00,
2013-05-10 21:59:00,57.5,36.0,29.96,WSW,251,6.8,8.5,44,0.00,,,0.00,CWS Microserver 1.4,2013-05-11 02:59:00,
2013-05-10 22:04:00,57.9,36.1,29.96,WSW,249,6.2,8.7,44,0.00,,,0.00,CWS Microserver 1.4,2013-05-11 03:04:00,
2013-05-10 22:09:00,57.5,37.1,29.96,WSW,247,5.7,8.7,46,0.00,,,0.00,CWS Microserver 1.4,2013-05-11 03:09:00,
2013-05-10 22:14:00,57.7,37.3,29.96,SW,232,6.3,8.0,46,0.00,,,0.00,CWS Microserver 1.4,2013-05-11 03:14:00,
2013-05-10 22:19:00,58.1,36.8,29.96,SW,232,6.7,8.8,45,0.00,,,0.00,CWS Microserver 1.4,2013-05-11 03:19:00,
2013-05-10 22:24:00,58.1,37.1,29.96,WSW,244,7.2,8.9,45,0.00,,,0.00,CWS Microserver 1.4,2013-05-11 03:24:00,
2013-05-10 22:29:00,58.1,37.6,29.96,WSW,257,7.0,9.1,46,0.00,,,0.00,CWS Microserver 1.4,2013-05-11 03:29:00,
2013-05-10 22:34:00,58.1,38.1,29.96,WSW,238,8.1,10.0,47,0.00,,,0.00,CWS Microserver 1.4,2013-05-11 03:34:00,
2013-05-10 22:39:00,58.1,38.1,29.95,WSW,247,6.6,10.0,47,0.00,,,0.00,CWS Microserver 1.4,2013-05-11 03:39:00,
2013-05-10 22:44:00,58.1,38.7,29.95,WSW,243,8.7,10.7,48,0.00,,,0.00,CWS Microserver 1.4,2013-05-11 03:44:00,
2013-05-10 22:49:00,58.1,38.9,29.95,SW,227,7.0,10.7,48,0.00,,,0.00,CWS Microserver 1.4,2013-05-11 03:49:00,
2013-05-10 22:54:00,57.9,39.0,29.95,SW,235,7.3,10.8,49,0.00,,,0.00,CWS Microserver 1.4,2013-05-11 03:54:00,
2013-05-10 22:59:00,58.2,39.6,29.95,West,266,4.8,10.8,49,0.00,,,0.00,CWS Microserver 1.4,2013-05-11 03:59:00,
2013-05-10 23:04:00,58.4,39.9,29.95,WSW,252,6.6,10.2,50,0.00,,,0.00,CWS Microserver 1.4,2013-05-11 04:04:00,
2013-05-10 23:09:00,59.0,39.8,29.95,WSW,241,8.7,14.6,49,0.00,,,0.00,CWS Microserver 1.4,2013-05-11 04:09:00,
2013-05-10 23:14:00,58.8,40.5,29.96,NW,318,13.6,14.6,50,0.00,,,0.00,CWS Microserver 1.4,2013-05-11 04:14:00,
2013-05-10 23:19:00,58.2,41.4,29.97,WNW,303,19.7,27.2,53,0.00,,,0.00,CWS Microserver 1.4,2013-05-11 04:19:00,
2013-05-10 23:24:00,58.1,42.5,29.96,WNW,290,20.4,28.6,56,0.00,,,0.00,CWS Microserver 1.4,2013-05-11 04:24:00,
2013-05-10 23:29:00,57.2,43.1,29.97,NW,307,17.6,28.6,59,0.00,,,0.00,CWS Microserver 1.4,2013-05-11 04:29:00,
2013-05-10 23:34:00,56.3,42.8,29.97,NW,312,20.2,28.6,60,0.00,,,0.00,CWS Microserver 1.4,2013-05-11 04:34:00,
2013-05-10 23:39:00,55.5,42.1,29.96,NW,326,27.0,27.2,60,0.00,,,0.00,CWS Microserver 1.4,2013-05-11 04:39:00,
2013-05-10 23:44:00,54.8,40.9,29.98,NW,315,26.6,30.0,59,0.00,,,0.00,CWS Microserver 1.4,2013-05-11 04:44:00,
2013-05-10 23:49:00,54.3,40.0,29.98,NNW,333,22.5,30.0,58,0.00,,,0.00,CWS Microserver 1.4,2013-05-11 04:49:00,
2013-05-10 23:54:00,53.9,39.9,29.98,NNW,330,9.9,28.6,59,0.00,,,0.00,CWS Microserver 1.4,2013-05-11 04:54:00,
2013-05-10 23:59:00,53.6,39.7,29.98,NNW,329,19.3,27.4,59,0.00,,,0.00,CWS Microserver 1.4,2013-05-11 04:59:00,